sensor_id;sensor_type;location;lat;lon;timestamp;P1;durP1;ratioP1;P2;durP2;ratioP2
50605;SDS011;36557;53.572;10.170;2023-11-19T00:01:55;5.03;;;2.97;;
50605;SDS011;36557;53.572;10.170;2023-11-19T00:04:22;5.00;;;2.92;;
50605;SDS011;36557;53.572;10.170;2023-11-19T00:06:48;3.55;;;2.35;;
50605;SDS011;36557;53.572;10.170;2023-11-19T00:09:13;5.40;;;3.08;;
50605;SDS011;36557;53.572;10.170;2023-11-19T00:11:41;6.00;;;3.00;;
50605;SDS011;36557;53.572;10.170;2023-11-19T00:14:07;5.18;;;2.60;;
50605;SDS011;36557;53.572;10.170;2023-11-19T00:16:33;4.78;;;2.95;;
50605;SDS011;36557;53.572;10.170;2023-11-19T00:18:59;4.43;;;2.63;;
50605;SDS011;36557;53.572;10.170;2023-11-19T00:21:25;5.03;;;2.45;;
50605;SDS011;36557;53.572;10.170;2023-11-19T00:23:53;5.10;;;2.50;;
50605;SDS011;36557;53.572;10.170;2023-11-19T00:26:19;4.28;;;2.67;;
50605;SDS011;36557;53.572;10.170;2023-11-19T00:28:45;2.95;;;1.75;;
50605;SDS011;36557;53.572;10.170;2023-11-19T00:31:12;5.35;;;2.30;;
50605;SDS011;36557;53.572;10.170;2023-11-19T00:33:38;3.45;;;1.83;;
50605;SDS011;36557;53.572;10.170;2023-11-19T00:36:05;4.03;;;1.92;;
50605;SDS011;36557;53.572;10.170;2023-11-19T00:38:31;4.07;;;2.33;;
50605;SDS011;36557;53.572;10.170;2023-11-19T00:40:57;2.80;;;1.85;;
50605;SDS011;36557;53.572;10.170;2023-11-19T00:43:22;2.30;;;1.48;;
50605;SDS011;36557;53.572;10.170;2023-11-19T00:45:48;3.30;;;2.00;;
50605;SDS011;36557;53.572;10.170;2023-11-19T00:48:16;2.35;;;1.30;;
50605;SDS011;36557;53.572;10.170;2023-11-19T00:50:42;3.58;;;1.33;;
50605;SDS011;36557;53.572;10.170;2023-11-19T00:53:09;1.85;;;1.20;;
50605;SDS011;36557;53.572;10.170;2023-11-19T00:55:35;3.50;;;1.20;;
50605;SDS011;36557;53.572;10.170;2023-11-19T00:58:01;2.13;;;1.30;;
50605;SDS011;36557;53.572;10.170;2023-11-19T01:00:28;2.95;;;1.65;;
50605;SDS011;36557;53.572;10.170;2023-11-19T01:02:54;1.73;;;1.20;;
50605;SDS011;36557;53.572;10.170;2023-11-19T01:05:20;1.95;;;1.30;;
50605;SDS011;36557;53.572;10.170;2023-11-19T01:07:49;1.50;;;1.27;;
50605;SDS011;36557;53.572;10.170;2023-11-19T01:10:15;1.98;;;1.30;;
50605;SDS011;36557;53.572;10.170;2023-11-19T01:12:41;2.80;;;1.50;;
50605;SDS011;36557;53.572;10.170;2023-11-19T01:15:07;1.83;;;1.30;;
50605;SDS011;36557;53.572;10.170;2023-11-19T01:17:33;1.63;;;1.13;;
50605;SDS011;36557;53.572;10.170;2023-11-19T01:19:59;2.75;;;1.17;;
50605;SDS011;36557;53.572;10.170;2023-11-19T01:22:25;1.50;;;1.08;;
50605;SDS011;36557;53.572;10.170;2023-11-19T01:24:51;1.48;;;0.90;;
50605;SDS011;36557;53.572;10.170;2023-11-19T01:27:17;1.48;;;1.00;;
50605;SDS011;36557;53.572;10.170;2023-11-19T01:29:43;1.38;;;0.95;;
50605;SDS011;36557;53.572;10.170;2023-11-19T01:32:08;1.20;;;0.80;;
50605;SDS011;36557;53.572;10.170;2023-11-19T01:34:34;1.48;;;0.82;;
50605;SDS011;36557;53.572;10.170;2023-11-19T01:37:01;1.30;;;0.70;;
50605;SDS011;36557;53.572;10.170;2023-11-19T01:39:26;1.45;;;0.98;;
50605;SDS011;36557;53.572;10.170;2023-11-19T01:41:52;0.85;;;0.52;;
50605;SDS011;36557;53.572;10.170;2023-11-19T01:44:19;1.27;;;0.75;;
50605;SDS011;36557;53.572;10.170;2023-11-19T01:46:45;0.73;;;0.70;;
50605;SDS011;36557;53.572;10.170;2023-11-19T01:49:15;1.38;;;0.70;;
50605;SDS011;36557;53.572;10.170;2023-11-19T01:51:41;0.70;;;0.50;;
50605;SDS011;36557;53.572;10.170;2023-11-19T01:54:07;1.10;;;0.80;;
50605;SDS011;36557;53.572;10.170;2023-11-19T01:56:34;0.85;;;0.60;;
50605;SDS011;36557;53.572;10.170;2023-11-19T01:59:00;1.17;;;0.60;;
50605;SDS011;36557;53.572;10.170;2023-11-19T02:01:27;1.35;;;0.70;;
50605;SDS011;36557;53.572;10.170;2023-11-19T02:03:54;0.77;;;0.50;;
50605;SDS011;36557;53.572;10.170;2023-11-19T02:06:20;0.68;;;0.55;;
50605;SDS011;36557;53.572;10.170;2023-11-19T02:08:46;1.10;;;0.65;;
50605;SDS011;36557;53.572;10.170;2023-11-19T02:11:12;0.68;;;0.47;;
50605;SDS011;36557;53.572;10.170;2023-11-19T02:13:38;0.63;;;0.40;;
50605;SDS011;36557;53.572;10.170;2023-11-19T02:16:06;0.93;;;0.52;;
50605;SDS011;36557;53.572;10.170;2023-11-19T02:18:34;0.70;;;0.50;;
50605;SDS011;36557;53.572;10.170;2023-11-19T02:21:00;0.75;;;0.40;;
50605;SDS011;36557;53.572;10.170;2023-11-19T02:23:26;1.05;;;0.45;;
50605;SDS011;36557;53.572;10.170;2023-11-19T02:28:39;1.63;;;0.50;;
50605;SDS011;36557;53.572;10.170;2023-11-19T02:31:07;0.47;;;0.40;;
50605;SDS011;36557;53.572;10.170;2023-11-19T02:33:35;0.30;;;0.28;;
50605;SDS011;36557;53.572;10.170;2023-11-19T02:36:01;0.60;;;0.40;;
50605;SDS011;36557;53.572;10.170;2023-11-19T02:38:29;1.17;;;0.50;;
50605;SDS011;36557;53.572;10.170;2023-11-19T02:40:56;0.60;;;0.40;;
50605;SDS011;36557;53.572;10.170;2023-11-19T02:43:22;0.60;;;0.40;;
50605;SDS011;36557;53.572;10.170;2023-11-19T02:45:48;1.10;;;0.60;;
50605;SDS011;36557;53.572;10.170;2023-11-19T02:48:14;0.60;;;0.50;;
50605;SDS011;36557;53.572;10.170;2023-11-19T02:50:41;0.90;;;0.40;;
50605;SDS011;36557;53.572;10.170;2023-11-19T02:53:07;1.27;;;0.50;;
50605;SDS011;36557;53.572;10.170;2023-11-19T02:55:33;0.82;;;0.40;;
50605;SDS011;36557;53.572;10.170;2023-11-19T02:58:03;0.70;;;0.43;;
50605;SDS011;36557;53.572;10.170;2023-11-19T03:00:45;0.88;;;0.60;;
50605;SDS011;36557;53.572;10.170;2023-11-19T03:03:21;0.55;;;0.40;;
50605;SDS011;36557;53.572;10.170;2023-11-19T03:05:51;0.57;;;0.43;;
50605;SDS011;36557;53.572;10.170;2023-11-19T03:08:17;1.73;;;0.43;;
50605;SDS011;36557;53.572;10.170;2023-11-19T03:10:43;0.70;;;0.50;;
50605;SDS011;36557;53.572;10.170;2023-11-19T03:13:10;0.82;;;0.50;;
50605;SDS011;36557;53.572;10.170;2023-11-19T03:15:38;0.73;;;0.50;;
50605;SDS011;36557;53.572;10.170;2023-11-19T03:18:05;0.60;;;0.50;;
50605;SDS011;36557;53.572;10.170;2023-11-19T03:20:31;0.70;;;0.57;;
50605;SDS011;36557;53.572;10.170;2023-11-19T03:22:57;0.60;;;0.45;;
50605;SDS011;36557;53.572;10.170;2023-11-19T03:25:26;1.20;;;0.60;;
50605;SDS011;36557;53.572;10.170;2023-11-19T03:27:58;0.75;;;0.60;;
50605;SDS011;36557;53.572;10.170;2023-11-19T03:30:24;0.70;;;0.60;;
50605;SDS011;36557;53.572;10.170;2023-11-19T03:32:50;0.77;;;0.57;;
50605;SDS011;36557;53.572;10.170;2023-11-19T03:35:16;0.65;;;0.50;;
50605;SDS011;36557;53.572;10.170;2023-11-19T03:37:42;0.90;;;0.52;;
50605;SDS011;36557;53.572;10.170;2023-11-19T03:40:09;0.63;;;0.43;;
50605;SDS011;36557;53.572;10.170;2023-11-19T03:42:35;0.82;;;0.60;;
50605;SDS011;36557;53.572;10.170;2023-11-19T03:45:01;0.80;;;0.60;;
50605;SDS011;36557;53.572;10.170;2023-11-19T03:47:30;0.85;;;0.60;;
50605;SDS011;36557;53.572;10.170;2023-11-19T03:49:56;1.33;;;0.63;;
50605;SDS011;36557;53.572;10.170;2023-11-19T03:52:22;1.05;;;0.60;;
50605;SDS011;36557;53.572;10.170;2023-11-19T03:54:49;0.80;;;0.60;;
50605;SDS011;36557;53.572;10.170;2023-11-19T03:57:15;1.02;;;0.70;;
50605;SDS011;36557;53.572;10.170;2023-11-19T03:59:41;0.90;;;0.55;;
50605;SDS011;36557;53.572;10.170;2023-11-19T04:02:07;1.40;;;0.82;;
50605;SDS011;36557;53.572;10.170;2023-11-19T04:04:33;1.10;;;0.70;;
50605;SDS011;36557;53.572;10.170;2023-11-19T04:07:00;0.90;;;0.70;;
50605;SDS011;36557;53.572;10.170;2023-11-19T04:09:28;1.65;;;0.90;;
50605;SDS011;36557;53.572;10.170;2023-11-19T04:11:54;1.30;;;0.90;;
50605;SDS011;36557;53.572;10.170;2023-11-19T04:14:21;1.13;;;0.90;;
50605;SDS011;36557;53.572;10.170;2023-11-19T04:16:47;1.17;;;0.95;;
50605;SDS011;36557;53.572;10.170;2023-11-19T04:19:13;1.00;;;0.85;;
50605;SDS011;36557;53.572;10.170;2023-11-19T04:21:42;1.70;;;1.30;;
50605;SDS011;36557;53.572;10.170;2023-11-19T04:24:08;7.35;;;1.20;;
50605;SDS011;36557;53.572;10.170;2023-11-19T04:26:43;1.83;;;1.08;;
50605;SDS011;36557;53.572;10.170;2023-11-19T04:29:13;1.73;;;1.23;;
50605;SDS011;36557;53.572;10.170;2023-11-19T04:31:42;2.13;;;1.20;;
50605;SDS011;36557;53.572;10.170;2023-11-19T04:34:09;1.45;;;1.00;;
50605;SDS011;36557;53.572;10.170;2023-11-19T04:36:36;2.50;;;1.20;;
50605;SDS011;36557;53.572;10.170;2023-11-19T04:39:02;2.50;;;1.00;;
50605;SDS011;36557;53.572;10.170;2023-11-19T04:41:49;1.88;;;1.48;;
50605;SDS011;36557;53.572;10.170;2023-11-19T04:44:19;1.58;;;1.30;;
50605;SDS011;36557;53.572;10.170;2023-11-19T04:46:45;1.88;;;1.25;;
50605;SDS011;36557;53.572;10.170;2023-11-19T04:49:12;2.83;;;1.23;;
50605;SDS011;36557;53.572;10.170;2023-11-19T04:51:44;1.52;;;1.17;;
50605;SDS011;36557;53.572;10.170;2023-11-19T04:54:13;1.70;;;1.27;;
50605;SDS011;36557;53.572;10.170;2023-11-19T04:56:39;1.83;;;1.13;;
50605;SDS011;36557;53.572;10.170;2023-11-19T04:59:05;1.63;;;1.30;;
50605;SDS011;36557;53.572;10.170;2023-11-19T05:01:34;1.83;;;1.23;;
50605;SDS011;36557;53.572;10.170;2023-11-19T05:04:00;2.88;;;1.45;;
50605;SDS011;36557;53.572;10.170;2023-11-19T05:06:30;2.70;;;1.27;;
50605;SDS011;36557;53.572;10.170;2023-11-19T05:08:59;2.08;;;1.27;;
50605;SDS011;36557;53.572;10.170;2023-11-19T05:11:34;6.30;;;1.98;;
50605;SDS011;36557;53.572;10.170;2023-11-19T05:14:02;4.03;;;1.67;;
50605;SDS011;36557;53.572;10.170;2023-11-19T05:16:31;2.30;;;1.60;;
50605;SDS011;36557;53.572;10.170;2023-11-19T05:18:57;2.60;;;1.75;;
50605;SDS011;36557;53.572;10.170;2023-11-19T05:21:23;2.85;;;1.98;;
50605;SDS011;36557;53.572;10.170;2023-11-19T05:23:49;2.55;;;1.83;;
50605;SDS011;36557;53.572;10.170;2023-11-19T05:26:18;2.33;;;1.88;;
50605;SDS011;36557;53.572;10.170;2023-11-19T05:28:45;2.97;;;2.28;;
50605;SDS011;36557;53.572;10.170;2023-11-19T05:31:11;4.30;;;2.35;;
50605;SDS011;36557;53.572;10.170;2023-11-19T05:33:37;3.60;;;2.50;;
50605;SDS011;36557;53.572;10.170;2023-11-19T05:36:03;2.78;;;2.20;;
50605;SDS011;36557;53.572;10.170;2023-11-19T05:38:29;3.13;;;2.08;;
50605;SDS011;36557;53.572;10.170;2023-11-19T05:40:55;3.10;;;2.42;;
50605;SDS011;36557;53.572;10.170;2023-11-19T05:43:21;4.05;;;2.88;;
50605;SDS011;36557;53.572;10.170;2023-11-19T05:45:47;3.28;;;2.30;;
50605;SDS011;36557;53.572;10.170;2023-11-19T05:48:12;6.95;;;3.70;;
50605;SDS011;36557;53.572;10.170;2023-11-19T05:50:38;4.80;;;2.72;;
50605;SDS011;36557;53.572;10.170;2023-11-19T05:53:04;5.70;;;2.78;;
50605;SDS011;36557;53.572;10.170;2023-11-19T05:55:34;5.15;;;3.25;;
50605;SDS011;36557;53.572;10.170;2023-11-19T05:58:01;4.43;;;2.53;;
50605;SDS011;36557;53.572;10.170;2023-11-19T06:00:27;4.82;;;2.60;;
50605;SDS011;36557;53.572;10.170;2023-11-19T06:02:52;5.57;;;2.90;;
50605;SDS011;36557;53.572;10.170;2023-11-19T06:05:18;4.05;;;2.92;;
50605;SDS011;36557;53.572;10.170;2023-11-19T06:07:44;5.07;;;3.03;;
50605;SDS011;36557;53.572;10.170;2023-11-19T06:10:11;5.68;;;2.90;;
50605;SDS011;36557;53.572;10.170;2023-11-19T06:12:39;5.32;;;3.00;;
50605;SDS011;36557;53.572;10.170;2023-11-19T06:15:06;6.03;;;2.78;;
50605;SDS011;36557;53.572;10.170;2023-11-19T06:17:33;6.25;;;3.40;;
50605;SDS011;36557;53.572;10.170;2023-11-19T06:19:59;6.10;;;3.22;;
50605;SDS011;36557;53.572;10.170;2023-11-19T06:22:25;6.85;;;3.55;;
50605;SDS011;36557;53.572;10.170;2023-11-19T06:24:51;5.05;;;3.00;;
50605;SDS011;36557;53.572;10.170;2023-11-19T06:27:17;5.50;;;3.50;;
50605;SDS011;36557;53.572;10.170;2023-11-19T06:29:43;6.60;;;3.50;;
50605;SDS011;36557;53.572;10.170;2023-11-19T06:32:08;7.55;;;3.90;;
50605;SDS011;36557;53.572;10.170;2023-11-19T06:34:34;7.78;;;3.67;;
50605;SDS011;36557;53.572;10.170;2023-11-19T06:37:00;6.72;;;3.80;;
50605;SDS011;36557;53.572;10.170;2023-11-19T06:39:28;7.82;;;4.25;;
50605;SDS011;36557;53.572;10.170;2023-11-19T06:41:53;9.10;;;3.83;;
50605;SDS011;36557;53.572;10.170;2023-11-19T06:44:19;7.78;;;3.95;;
50605;SDS011;36557;53.572;10.170;2023-11-19T06:46:45;7.63;;;4.07;;
50605;SDS011;36557;53.572;10.170;2023-11-19T06:49:11;8.07;;;3.95;;
50605;SDS011;36557;53.572;10.170;2023-11-19T06:51:41;11.10;;;4.35;;
50605;SDS011;36557;53.572;10.170;2023-11-19T06:54:07;6.95;;;3.38;;
50605;SDS011;36557;53.572;10.170;2023-11-19T06:56:33;8.90;;;4.00;;
50605;SDS011;36557;53.572;10.170;2023-11-19T06:58:58;15.00;;;3.88;;
50605;SDS011;36557;53.572;10.170;2023-11-19T07:01:24;9.82;;;3.85;;
50605;SDS011;36557;53.572;10.170;2023-11-19T07:03:50;11.23;;;3.97;;
50605;SDS011;36557;53.572;10.170;2023-11-19T07:06:16;10.40;;;3.55;;
50605;SDS011;36557;53.572;10.170;2023-11-19T07:08:41;13.60;;;3.78;;
50605;SDS011;36557;53.572;10.170;2023-11-19T07:11:10;14.18;;;4.10;;
50605;SDS011;36557;53.572;10.170;2023-11-19T07:13:37;9.27;;;3.10;;
50605;SDS011;36557;53.572;10.170;2023-11-19T07:16:02;12.02;;;3.17;;
50605;SDS011;36557;53.572;10.170;2023-11-19T07:18:28;10.45;;;2.85;;
50605;SDS011;36557;53.572;10.170;2023-11-19T07:20:54;16.33;;;3.45;;
50605;SDS011;36557;53.572;10.170;2023-11-19T07:23:20;12.02;;;2.85;;
50605;SDS011;36557;53.572;10.170;2023-11-19T07:25:46;9.48;;;3.30;;
50605;SDS011;36557;53.572;10.170;2023-11-19T07:28:12;7.07;;;2.50;;
50605;SDS011;36557;53.572;10.170;2023-11-19T07:30:38;13.50;;;3.95;;
50605;SDS011;36557;53.572;10.170;2023-11-19T07:33:04;13.63;;;3.20;;
50605;SDS011;36557;53.572;10.170;2023-11-19T07:35:30;15.63;;;2.85;;
50605;SDS011;36557;53.572;10.170;2023-11-19T07:37:56;7.25;;;2.47;;
50605;SDS011;36557;53.572;10.170;2023-11-19T07:40:23;9.85;;;1.83;;
50605;SDS011;36557;53.572;10.170;2023-11-19T07:42:49;13.85;;;3.90;;
50605;SDS011;36557;53.572;10.170;2023-11-19T07:45:15;11.20;;;2.72;;
50605;SDS011;36557;53.572;10.170;2023-11-19T07:47:41;11.25;;;2.10;;
50605;SDS011;36557;53.572;10.170;2023-11-19T07:50:09;7.97;;;2.25;;
50605;SDS011;36557;53.572;10.170;2023-11-19T07:52:38;12.23;;;2.90;;
50605;SDS011;36557;53.572;10.170;2023-11-19T07:55:04;9.25;;;2.42;;
50605;SDS011;36557;53.572;10.170;2023-11-19T07:57:30;10.30;;;1.83;;
50605;SDS011;36557;53.572;10.170;2023-11-19T07:59:56;12.63;;;2.28;;
50605;SDS011;36557;53.572;10.170;2023-11-19T08:02:22;14.43;;;2.38;;
50605;SDS011;36557;53.572;10.170;2023-11-19T08:04:49;12.20;;;2.28;;
50605;SDS011;36557;53.572;10.170;2023-11-19T08:07:17;14.23;;;2.38;;
50605;SDS011;36557;53.572;10.170;2023-11-19T08:09:44;8.25;;;2.00;;
50605;SDS011;36557;53.572;10.170;2023-11-19T08:12:10;8.02;;;1.98;;
50605;SDS011;36557;53.572;10.170;2023-11-19T08:14:35;11.75;;;2.47;;
50605;SDS011;36557;53.572;10.170;2023-11-19T08:17:02;14.48;;;1.95;;
50605;SDS011;36557;53.572;10.170;2023-11-19T08:19:28;10.88;;;2.58;;
50605;SDS011;36557;53.572;10.170;2023-11-19T08:21:54;21.00;;;2.78;;
50605;SDS011;36557;53.572;10.170;2023-11-19T08:24:19;12.07;;;2.08;;
50605;SDS011;36557;53.572;10.170;2023-11-19T08:26:45;15.23;;;2.50;;
50605;SDS011;36557;53.572;10.170;2023-11-19T08:29:11;10.10;;;2.47;;
50605;SDS011;36557;53.572;10.170;2023-11-19T08:31:36;12.93;;;3.55;;
50605;SDS011;36557;53.572;10.170;2023-11-19T08:34:02;13.93;;;2.40;;
50605;SDS011;36557;53.572;10.170;2023-11-19T08:36:28;13.98;;;2.38;;
50605;SDS011;36557;53.572;10.170;2023-11-19T08:38:54;14.77;;;2.72;;
50605;SDS011;36557;53.572;10.170;2023-11-19T08:41:20;14.93;;;2.58;;
50605;SDS011;36557;53.572;10.170;2023-11-19T08:43:46;14.65;;;2.70;;
50605;SDS011;36557;53.572;10.170;2023-11-19T08:46:12;18.13;;;2.88;;
50605;SDS011;36557;53.572;10.170;2023-11-19T08:48:38;14.35;;;2.97;;
50605;SDS011;36557;53.572;10.170;2023-11-19T08:51:04;14.57;;;2.25;;
50605;SDS011;36557;53.572;10.170;2023-11-19T08:53:30;18.33;;;2.67;;
50605;SDS011;36557;53.572;10.170;2023-11-19T08:55:56;19.35;;;5.03;;
50605;SDS011;36557;53.572;10.170;2023-11-19T08:58:22;17.08;;;2.78;;
50605;SDS011;36557;53.572;10.170;2023-11-19T09:00:47;11.18;;;2.13;;
50605;SDS011;36557;53.572;10.170;2023-11-19T09:03:13;17.75;;;3.10;;
50605;SDS011;36557;53.572;10.170;2023-11-19T09:05:39;13.05;;;2.33;;
50605;SDS011;36557;53.572;10.170;2023-11-19T09:08:06;13.93;;;2.90;;
50605;SDS011;36557;53.572;10.170;2023-11-19T09:10:31;16.52;;;3.47;;
50605;SDS011;36557;53.572;10.170;2023-11-19T09:12:57;16.88;;;2.65;;
50605;SDS011;36557;53.572;10.170;2023-11-19T09:15:23;19.35;;;3.65;;
50605;SDS011;36557;53.572;10.170;2023-11-19T09:17:49;15.75;;;2.67;;
50605;SDS011;36557;53.572;10.170;2023-11-19T09:20:14;16.85;;;2.67;;
50605;SDS011;36557;53.572;10.170;2023-11-19T09:22:41;14.88;;;2.88;;
50605;SDS011;36557;53.572;10.170;2023-11-19T09:25:07;17.02;;;3.00;;
50605;SDS011;36557;53.572;10.170;2023-11-19T09:27:33;15.93;;;3.25;;
50605;SDS011;36557;53.572;10.170;2023-11-19T09:29:58;16.95;;;3.22;;
50605;SDS011;36557;53.572;10.170;2023-11-19T09:32:24;14.32;;;2.38;;
50605;SDS011;36557;53.572;10.170;2023-11-19T09:34:50;13.57;;;2.33;;
50605;SDS011;36557;53.572;10.170;2023-11-19T09:37:16;16.67;;;2.80;;
50605;SDS011;36557;53.572;10.170;2023-11-19T09:39:42;18.33;;;2.28;;
50605;SDS011;36557;53.572;10.170;2023-11-19T09:42:10;14.88;;;2.63;;
50605;SDS011;36557;53.572;10.170;2023-11-19T09:44:37;18.15;;;2.63;;
50605;SDS011;36557;53.572;10.170;2023-11-19T09:47:04;19.13;;;2.92;;
50605;SDS011;36557;53.572;10.170;2023-11-19T09:49:32;16.83;;;3.00;;
50605;SDS011;36557;53.572;10.170;2023-11-19T09:52:00;17.20;;;2.88;;
50605;SDS011;36557;53.572;10.170;2023-11-19T09:54:27;15.90;;;3.03;;
50605;SDS011;36557;53.572;10.170;2023-11-19T09:56:54;21.13;;;3.05;;
50605;SDS011;36557;53.572;10.170;2023-11-19T09:59:24;14.45;;;2.67;;
50605;SDS011;36557;53.572;10.170;2023-11-19T10:01:50;21.10;;;3.45;;
50605;SDS011;36557;53.572;10.170;2023-11-19T10:04:16;15.80;;;2.53;;
50605;SDS011;36557;53.572;10.170;2023-11-19T10:06:43;18.38;;;3.15;;
50605;SDS011;36557;53.572;10.170;2023-11-19T10:09:09;17.10;;;3.33;;
50605;SDS011;36557;53.572;10.170;2023-11-19T10:11:35;17.98;;;4.28;;
50605;SDS011;36557;53.572;10.170;2023-11-19T10:14:01;21.10;;;3.72;;
50605;SDS011;36557;53.572;10.170;2023-11-19T10:16:28;29.20;;;3.38;;
50605;SDS011;36557;53.572;10.170;2023-11-19T10:18:55;15.68;;;2.55;;
50605;SDS011;36557;53.572;10.170;2023-11-19T10:21:21;11.93;;;2.65;;
50605;SDS011;36557;53.572;10.170;2023-11-19T10:23:52;17.25;;;3.92;;
50605;SDS011;36557;53.572;10.170;2023-11-19T10:26:19;21.48;;;4.38;;
50605;SDS011;36557;53.572;10.170;2023-11-19T10:28:46;16.08;;;3.08;;
50605;SDS011;36557;53.572;10.170;2023-11-19T10:31:13;17.42;;;2.60;;
50605;SDS011;36557;53.572;10.170;2023-11-19T10:33:40;19.98;;;3.45;;
50605;SDS011;36557;53.572;10.170;2023-11-19T10:36:06;15.23;;;2.67;;
50605;SDS011;36557;53.572;10.170;2023-11-19T10:38:32;16.10;;;2.90;;
50605;SDS011;36557;53.572;10.170;2023-11-19T10:40:59;19.23;;;3.60;;
50605;SDS011;36557;53.572;10.170;2023-11-19T10:43:25;13.25;;;3.03;;
50605;SDS011;36557;53.572;10.170;2023-11-19T10:45:52;22.73;;;3.28;;
50605;SDS011;36557;53.572;10.170;2023-11-19T10:48:18;22.67;;;4.05;;
50605;SDS011;36557;53.572;10.170;2023-11-19T10:50:46;15.20;;;2.47;;
50605;SDS011;36557;53.572;10.170;2023-11-19T10:53:14;15.63;;;3.65;;
50605;SDS011;36557;53.572;10.170;2023-11-19T10:55:43;17.98;;;2.55;;
50605;SDS011;36557;53.572;10.170;2023-11-19T10:58:12;18.00;;;2.33;;
50605;SDS011;36557;53.572;10.170;2023-11-19T11:00:45;15.82;;;2.20;;
50605;SDS011;36557;53.572;10.170;2023-11-19T11:05:42;13.50;;;2.63;;
50605;SDS011;36557;53.572;10.170;2023-11-19T11:08:09;14.95;;;2.35;;
50605;SDS011;36557;53.572;10.170;2023-11-19T11:10:38;16.30;;;2.65;;
50605;SDS011;36557;53.572;10.170;2023-11-19T11:13:05;17.38;;;2.88;;
50605;SDS011;36557;53.572;10.170;2023-11-19T11:15:31;16.23;;;3.85;;
50605;SDS011;36557;53.572;10.170;2023-11-19T11:18:01;16.88;;;3.35;;
50605;SDS011;36557;53.572;10.170;2023-11-19T11:20:33;13.88;;;2.70;;
50605;SDS011;36557;53.572;10.170;2023-11-19T11:33:52;17.00;;;3.22;;
50605;SDS011;36557;53.572;10.170;2023-11-19T11:36:22;16.33;;;2.55;;
50605;SDS011;36557;53.572;10.170;2023-11-19T11:38:49;16.75;;;2.90;;
50605;SDS011;36557;53.572;10.170;2023-11-19T11:41:18;15.50;;;2.67;;
50605;SDS011;36557;53.572;10.170;2023-11-19T11:43:51;14.95;;;3.45;;
50605;SDS011;36557;53.572;10.170;2023-11-19T11:49:03;14.75;;;2.42;;
50605;SDS011;36557;53.572;10.170;2023-11-19T11:57:02;14.18;;;1.92;;
50605;SDS011;36557;53.572;10.170;2023-11-19T11:59:42;22.92;;;3.95;;
50605;SDS011;36557;53.572;10.170;2023-11-19T12:02:09;14.27;;;2.63;;
50605;SDS011;36557;53.572;10.170;2023-11-19T12:04:36;15.52;;;3.17;;
50605;SDS011;36557;53.572;10.170;2023-11-19T12:07:12;9.05;;;2.28;;
50605;SDS011;36557;53.572;10.170;2023-11-19T12:09:42;16.30;;;3.40;;
50605;SDS011;36557;53.572;10.170;2023-11-19T12:12:19;17.48;;;2.80;;
50605;SDS011;36557;53.572;10.170;2023-11-19T12:19:59;18.75;;;3.03;;
50605;SDS011;36557;53.572;10.170;2023-11-19T12:22:26;15.55;;;2.78;;
50605;SDS011;36557;53.572;10.170;2023-11-19T12:24:55;19.48;;;3.40;;
50605;SDS011;36557;53.572;10.170;2023-11-19T12:27:22;22.08;;;3.17;;
50605;SDS011;36557;53.572;10.170;2023-11-19T12:29:48;12.57;;;2.35;;
50605;SDS011;36557;53.572;10.170;2023-11-19T12:32:14;13.75;;;2.92;;
50605;SDS011;36557;53.572;10.170;2023-11-19T12:34:40;18.00;;;2.60;;
50605;SDS011;36557;53.572;10.170;2023-11-19T12:37:07;15.30;;;2.72;;
50605;SDS011;36557;53.572;10.170;2023-11-19T12:39:34;12.98;;;2.35;;
50605;SDS011;36557;53.572;10.170;2023-11-19T12:42:01;17.98;;;3.13;;
50605;SDS011;36557;53.572;10.170;2023-11-19T12:44:27;14.80;;;2.53;;
50605;SDS011;36557;53.572;10.170;2023-11-19T12:49:26;19.33;;;3.25;;
50605;SDS011;36557;53.572;10.170;2023-11-19T12:51:52;13.30;;;2.40;;
50605;SDS011;36557;53.572;10.170;2023-11-19T12:54:18;11.57;;;2.25;;
50605;SDS011;36557;53.572;10.170;2023-11-19T12:56:54;12.45;;;2.63;;
50605;SDS011;36557;53.572;10.170;2023-11-19T12:59:20;16.23;;;2.75;;
50605;SDS011;36557;53.572;10.170;2023-11-19T13:01:56;13.63;;;2.30;;
50605;SDS011;36557;53.572;10.170;2023-11-19T13:04:22;8.88;;;2.47;;
50605;SDS011;36557;53.572;10.170;2023-11-19T13:06:51;17.92;;;2.15;;
50605;SDS011;36557;53.572;10.170;2023-11-19T13:09:24;13.80;;;3.17;;
50605;SDS011;36557;53.572;10.170;2023-11-19T13:11:50;20.00;;;3.10;;
50605;SDS011;36557;53.572;10.170;2023-11-19T13:14:17;10.25;;;2.72;;
50605;SDS011;36557;53.572;10.170;2023-11-19T13:16:44;16.52;;;3.22;;
50605;SDS011;36557;53.572;10.170;2023-11-19T13:19:14;11.32;;;2.83;;
50605;SDS011;36557;53.572;10.170;2023-11-19T13:21:41;11.68;;;2.65;;
50605;SDS011;36557;53.572;10.170;2023-11-19T13:24:08;19.52;;;4.18;;
50605;SDS011;36557;53.572;10.170;2023-11-19T13:26:34;17.30;;;2.30;;
50605;SDS011;36557;53.572;10.170;2023-11-19T13:29:00;14.15;;;3.80;;
50605;SDS011;36557;53.572;10.170;2023-11-19T13:31:26;22.05;;;3.60;;
50605;SDS011;36557;53.572;10.170;2023-11-19T13:33:53;13.40;;;2.45;;
50605;SDS011;36557;53.572;10.170;2023-11-19T13:36:19;12.77;;;3.08;;
50605;SDS011;36557;53.572;10.170;2023-11-19T13:38:45;19.17;;;3.88;;
50605;SDS011;36557;53.572;10.170;2023-11-19T13:41:12;16.33;;;3.28;;
50605;SDS011;36557;53.572;10.170;2023-11-19T13:43:38;21.15;;;3.65;;
50605;SDS011;36557;53.572;10.170;2023-11-19T13:46:04;19.25;;;3.13;;
50605;SDS011;36557;53.572;10.170;2023-11-19T13:48:31;19.02;;;3.78;;
50605;SDS011;36557;53.572;10.170;2023-11-19T13:50:57;19.25;;;2.95;;
50605;SDS011;36557;53.572;10.170;2023-11-19T13:53:23;18.60;;;3.13;;
50605;SDS011;36557;53.572;10.170;2023-11-19T13:55:50;23.63;;;2.80;;
50605;SDS011;36557;53.572;10.170;2023-11-19T13:58:16;18.92;;;4.20;;
50605;SDS011;36557;53.572;10.170;2023-11-19T14:00:42;17.60;;;3.28;;
50605;SDS011;36557;53.572;10.170;2023-11-19T14:03:08;16.05;;;2.67;;
50605;SDS011;36557;53.572;10.170;2023-11-19T14:05:37;15.13;;;3.00;;
50605;SDS011;36557;53.572;10.170;2023-11-19T14:08:04;20.42;;;3.22;;
50605;SDS011;36557;53.572;10.170;2023-11-19T14:10:39;15.35;;;2.80;;
50605;SDS011;36557;53.572;10.170;2023-11-19T14:13:07;15.43;;;2.17;;
50605;SDS011;36557;53.572;10.170;2023-11-19T14:15:33;17.15;;;3.50;;
50605;SDS011;36557;53.572;10.170;2023-11-19T14:18:00;14.50;;;3.00;;
50605;SDS011;36557;53.572;10.170;2023-11-19T14:20:26;19.42;;;3.45;;
50605;SDS011;36557;53.572;10.170;2023-11-19T14:22:53;14.55;;;2.75;;
50605;SDS011;36557;53.572;10.170;2023-11-19T14:25:19;14.57;;;2.25;;
50605;SDS011;36557;53.572;10.170;2023-11-19T14:27:46;14.38;;;2.63;;
50605;SDS011;36557;53.572;10.170;2023-11-19T14:30:12;11.57;;;2.40;;
50605;SDS011;36557;53.572;10.170;2023-11-19T14:32:39;11.98;;;2.35;;
50605;SDS011;36557;53.572;10.170;2023-11-19T14:35:07;14.77;;;2.65;;
50605;SDS011;36557;53.572;10.170;2023-11-19T14:37:33;14.52;;;2.85;;
50605;SDS011;36557;53.572;10.170;2023-11-19T14:39:59;17.00;;;2.70;;
50605;SDS011;36557;53.572;10.170;2023-11-19T14:42:28;14.52;;;2.50;;
50605;SDS011;36557;53.572;10.170;2023-11-19T14:44:54;15.48;;;2.92;;
50605;SDS011;36557;53.572;10.170;2023-11-19T14:47:20;16.75;;;2.78;;
50605;SDS011;36557;53.572;10.170;2023-11-19T14:49:46;13.68;;;2.50;;
50605;SDS011;36557;53.572;10.170;2023-11-19T14:52:13;14.00;;;2.20;;
50605;SDS011;36557;53.572;10.170;2023-11-19T14:54:39;12.02;;;2.75;;
50605;SDS011;36557;53.572;10.170;2023-11-19T14:57:05;16.08;;;2.30;;
50605;SDS011;36557;53.572;10.170;2023-11-19T14:59:33;11.98;;;2.30;;